sensor_id;sensor_type;location;lat;lon;timestamp;pressure;altitude;pressure_sealevel;temperature;humidity
76126;BME280;65174;48.138;21.002;2023-04-15T00:01:40;98431.47;;;6.32;91.03
76126;BME280;65174;48.138;21.002;2023-04-15T00:04:46;98423.03;;;6.30;91.32
76126;BME280;65174;48.138;21.002;2023-04-15T00:07:48;98430.75;;;6.43;91.27
76126;BME280;65174;48.138;21.002;2023-04-15T00:10:50;98434.13;;;6.58;91.44
76126;BME280;65174;48.138;21.002;2023-04-15T00:13:52;98434.03;;;6.59;91.24
76126;BME280;65174;48.138;21.002;2023-04-15T00:16:55;98422.44;;;6.66;91.88
76126;BME280;65174;48.138;21.002;2023-04-15T00:19:58;98432.31;;;6.72;92.25
76126;BME280;65174;48.138;21.002;2023-04-15T00:23:01;98431.81;;;6.80;92.71
76126;BME280;65174;48.138;21.002;2023-04-15T00:26:05;98423.63;;;6.87;92.98
76126;BME280;65174;48.138;21.002;2023-04-15T00:29:07;98427.72;;;6.90;92.90
76126;BME280;65174;48.138;21.002;2023-04-15T00:32:10;98430.59;;;6.98;92.81
76126;BME280;65174;48.138;21.002;2023-04-15T00:35:14;98432.44;;;6.96;92.93
76126;BME280;65174;48.138;21.002;2023-04-15T00:38:17;98426.00;;;7.03;92.44
76126;BME280;65174;48.138;21.002;2023-04-15T00:41:19;98430.41;;;6.88;92.90
76126;BME280;65174;48.138;21.002;2023-04-15T00:44:21;98430.28;;;6.90;92.94
76126;BME280;65174;48.138;21.002;2023-04-15T00:47:23;98425.75;;;6.81;92.83
76126;BME280;65174;48.138;21.002;2023-04-15T00:50:27;98425.47;;;6.85;92.93
76126;BME280;65174;48.138;21.002;2023-04-15T00:53:29;98424.03;;;6.81;93.01
76126;BME280;65174;48.138;21.002;2023-04-15T00:56:34;98422.59;;;6.90;92.97
76126;BME280;65174;48.138;21.002;2023-04-15T00:59:36;98415.94;;;6.87;92.96
76126;BME280;65174;48.138;21.002;2023-04-15T01:02:38;98411.44;;;6.91;93.10
76126;BME280;65174;48.138;21.002;2023-04-15T01:05:41;98412.63;;;6.85;93.36
76126;BME280;65174;48.138;21.002;2023-04-15T01:08:44;98409.88;;;6.88;93.43
76126;BME280;65174;48.138;21.002;2023-04-15T01:11:50;98412.34;;;6.90;93.11
76126;BME280;65174;48.138;21.002;2023-04-15T01:14:53;98410.38;;;6.93;92.80
76126;BME280;65174;48.138;21.002;2023-04-15T01:17:58;98416.88;;;6.99;92.96
76126;BME280;65174;48.138;21.002;2023-04-15T01:21:00;98414.47;;;6.83;93.08
76126;BME280;65174;48.138;21.002;2023-04-15T01:24:09;98415.16;;;6.99;92.41
76126;BME280;65174;48.138;21.002;2023-04-15T01:27:11;98412.56;;;6.87;93.25
76126;BME280;65174;48.138;21.002;2023-04-15T01:30:13;98413.78;;;6.94;92.69
76126;BME280;65174;48.138;21.002;2023-04-15T01:33:16;98411.34;;;6.92;92.53
76126;BME280;65174;48.138;21.002;2023-04-15T01:36:19;98414.19;;;6.88;92.84
76126;BME280;65174;48.138;21.002;2023-04-15T01:39:21;98419.94;;;6.91;93.14
76126;BME280;65174;48.138;21.002;2023-04-15T01:42:25;98417.88;;;6.84;93.22
76126;BME280;65174;48.138;21.002;2023-04-15T01:45:27;98424.16;;;6.92;92.90
76126;BME280;65174;48.138;21.002;2023-04-15T01:48:29;98425.31;;;7.13;92.61
76126;BME280;65174;48.138;21.002;2023-04-15T01:51:31;98425.31;;;7.39;91.27
76126;BME280;65174;48.138;21.002;2023-04-15T01:54:33;98419.47;;;7.49;90.38
76126;BME280;65174;48.138;21.002;2023-04-15T01:57:35;98415.34;;;7.21;90.69
76126;BME280;65174;48.138;21.002;2023-04-15T02:00:37;98415.16;;;6.99;91.29
76126;BME280;65174;48.138;21.002;2023-04-15T02:03:39;98410.53;;;7.17;90.94
76126;BME280;65174;48.138;21.002;2023-04-15T02:06:42;98405.41;;;7.17;90.44
76126;BME280;65174;48.138;21.002;2023-04-15T02:09:45;98403.34;;;6.97;91.49
76126;BME280;65174;48.138;21.002;2023-04-15T02:12:48;98412.47;;;7.01;91.46
76126;BME280;65174;48.138;21.002;2023-04-15T02:15:50;98406.34;;;7.16;90.57
76126;BME280;65174;48.138;21.002;2023-04-15T02:18:54;98408.69;;;7.06;90.98
76126;BME280;65174;48.138;21.002;2023-04-15T02:21:56;98416.06;;;7.23;90.61
76126;BME280;65174;48.138;21.002;2023-04-15T02:24:58;98408.28;;;7.38;90.36
76126;BME280;65174;48.138;21.002;2023-04-15T02:28:00;98407.25;;;7.40;89.21
76126;BME280;65174;48.138;21.002;2023-04-15T02:31:05;98407.47;;;7.37;88.85
76126;BME280;65174;48.138;21.002;2023-04-15T02:34:07;98410.22;;;7.34;88.65
76126;BME280;65174;48.138;21.002;2023-04-15T02:37:11;98406.00;;;7.33;88.59
76126;BME280;65174;48.138;21.002;2023-04-15T02:40:13;98404.56;;;7.29;88.38
76126;BME280;65174;48.138;21.002;2023-04-15T02:43:15;98405.50;;;7.28;87.82
76126;BME280;65174;48.138;21.002;2023-04-15T02:46:20;98429.19;;;7.06;89.32
76126;BME280;65174;48.138;21.002;2023-04-15T02:49:24;98426.31;;;6.98;90.45
76126;BME280;65174;48.138;21.002;2023-04-15T02:52:26;98425.47;;;6.85;90.64
76126;BME280;65174;48.138;21.002;2023-04-15T02:55:28;98424.03;;;6.94;91.05
76126;BME280;65174;48.138;21.002;2023-04-15T02:58:30;98414.91;;;6.90;91.37
76126;BME280;65174;48.138;21.002;2023-04-15T03:01:32;98421.38;;;6.95;91.45
76126;BME280;65174;48.138;21.002;2023-04-15T03:04:34;98418.81;;;6.95;90.96
76126;BME280;65174;48.138;21.002;2023-04-15T03:07:38;98416.03;;;6.86;91.45
76126;BME280;65174;48.138;21.002;2023-04-15T03:10:41;98408.00;;;6.65;91.48
76126;BME280;65174;48.138;21.002;2023-04-15T03:13:43;98414.53;;;6.57;92.09
76126;BME280;65174;48.138;21.002;2023-04-15T03:16:57;98415.75;;;6.51;93.25
76126;BME280;65174;48.138;21.002;2023-04-15T03:20:01;98409.25;;;6.72;92.43
76126;BME280;65174;48.138;21.002;2023-04-15T03:23:06;98396.53;;;6.71;92.40
76126;BME280;65174;48.138;21.002;2023-04-15T03:26:08;98411.91;;;6.83;92.03
76126;BME280;65174;48.138;21.002;2023-04-15T03:29:10;98413.34;;;6.75;91.63
76126;BME280;65174;48.138;21.002;2023-04-15T03:32:13;98414.16;;;6.75;91.28
76126;BME280;65174;48.138;21.002;2023-04-15T03:35:16;98418.03;;;6.68;91.83
76126;BME280;65174;48.138;21.002;2023-04-15T03:38:18;98422.06;;;6.72;92.26
76126;BME280;65174;48.138;21.002;2023-04-15T03:41:21;98429.53;;;6.75;92.35
76126;BME280;65174;48.138;21.002;2023-04-15T03:44:23;98434.72;;;7.00;91.59
76126;BME280;65174;48.138;21.002;2023-04-15T03:47:25;98430.81;;;6.95;91.45
76126;BME280;65174;48.138;21.002;2023-04-15T03:50:27;98443.72;;;6.93;91.64
76126;BME280;65174;48.138;21.002;2023-04-15T03:53:29;98438.34;;;6.71;92.30
76126;BME280;65174;48.138;21.002;2023-04-15T03:56:31;98452.81;;;6.72;92.54
76126;BME280;65174;48.138;21.002;2023-04-15T03:59:33;98442.66;;;6.71;92.77
76126;BME280;65174;48.138;21.002;2023-04-15T04:02:35;98449.31;;;6.73;92.73
76126;BME280;65174;48.138;21.002;2023-04-15T04:05:37;98441.09;;;6.68;92.71
76126;BME280;65174;48.138;21.002;2023-04-15T04:08:42;98444.69;;;6.66;93.27
76126;BME280;65174;48.138;21.002;2023-04-15T04:11:44;98450.66;;;6.79;92.64
76126;BME280;65174;48.138;21.002;2023-04-15T04:14:46;98452.56;;;6.63;93.60
76126;BME280;65174;48.138;21.002;2023-04-15T04:17:49;98448.16;;;6.65;93.88
76126;BME280;65174;48.138;21.002;2023-04-15T04:20:51;98453.78;;;6.57;94.03
76126;BME280;65174;48.138;21.002;2023-04-15T04:23:53;98458.47;;;6.51;94.25
76126;BME280;65174;48.138;21.002;2023-04-15T04:26:55;98458.38;;;6.52;94.61
76126;BME280;65174;48.138;21.002;2023-04-15T04:29:58;98448.50;;;6.46;95.00
76126;BME280;65174;48.138;21.002;2023-04-15T04:33:00;98452.75;;;6.47;95.32
76126;BME280;65174;48.138;21.002;2023-04-15T04:36:02;98449.97;;;6.50;95.15
76126;BME280;65174;48.138;21.002;2023-04-15T04:39:04;98452.09;;;6.43;95.42
76126;BME280;65174;48.138;21.002;2023-04-15T04:42:06;98458.66;;;6.48;95.29
76126;BME280;65174;48.138;21.002;2023-04-15T04:45:08;98451.97;;;6.32;96.08
76126;BME280;65174;48.138;21.002;2023-04-15T04:48:10;98456.97;;;6.34;95.99
76126;BME280;65174;48.138;21.002;2023-04-15T04:51:12;98461.50;;;6.43;95.94
76126;BME280;65174;48.138;21.002;2023-04-15T04:54:14;98462.50;;;6.55;95.95
76126;BME280;65174;48.138;21.002;2023-04-15T04:57:16;98467.22;;;6.61;95.31
76126;BME280;65174;48.138;21.002;2023-04-15T05:00:18;98464.81;;;6.72;94.93
76126;BME280;65174;48.138;21.002;2023-04-15T05:03:21;98463.59;;;6.77;94.92
76126;BME280;65174;48.138;21.002;2023-04-15T05:06:23;98468.59;;;6.79;94.95
76126;BME280;65174;48.138;21.002;2023-04-15T05:09:25;98461.63;;;6.81;94.79
76126;BME280;65174;48.138;21.002;2023-04-15T05:12:27;98457.47;;;6.92;94.53
76126;BME280;65174;48.138;21.002;2023-04-15T05:15:29;98466.63;;;7.09;94.24
76126;BME280;65174;48.138;21.002;2023-04-15T05:18:31;98460.56;;;6.97;94.74
76126;BME280;65174;48.138;21.002;2023-04-15T05:21:33;98462.41;;;7.08;94.93
76126;BME280;65174;48.138;21.002;2023-04-15T05:24:35;98467.78;;;7.17;93.75
76126;BME280;65174;48.138;21.002;2023-04-15T05:27:37;98474.03;;;7.13;94.31
76126;BME280;65174;48.138;21.002;2023-04-15T05:30:39;98481.22;;;7.21;93.92
76126;BME280;65174;48.138;21.002;2023-04-15T05:33:41;98471.91;;;7.20;93.87
76126;BME280;65174;48.138;21.002;2023-04-15T05:36:43;98478.06;;;7.30;93.23
76126;BME280;65174;48.138;21.002;2023-04-15T05:39:45;98479.31;;;7.37;93.47
76126;BME280;65174;48.138;21.002;2023-04-15T05:42:47;98472.94;;;7.55;92.68
76126;BME280;65174;48.138;21.002;2023-04-15T05:45:49;98477.13;;;7.69;91.73
76126;BME280;65174;48.138;21.002;2023-04-15T05:48:52;98480.94;;;7.88;91.09
76126;BME280;65174;48.138;21.002;2023-04-15T05:51:56;98483.91;;;7.82;91.58
76126;BME280;65174;48.138;21.002;2023-04-15T05:54:58;98488.22;;;7.82;91.24
76126;BME280;65174;48.138;21.002;2023-04-15T05:58:00;98485.03;;;7.78;91.80
76126;BME280;65174;48.138;21.002;2023-04-15T06:01:02;98488.44;;;7.91;91.95
76126;BME280;65174;48.138;21.002;2023-04-15T06:04:05;98491.72;;;7.81;91.61
76126;BME280;65174;48.138;21.002;2023-04-15T06:07:07;98496.34;;;7.88;91.62
76126;BME280;65174;48.138;21.002;2023-04-15T06:10:09;98496.53;;;7.85;91.51
76126;BME280;65174;48.138;21.002;2023-04-15T06:13:11;98492.22;;;7.86;91.73
76126;BME280;65174;48.138;21.002;2023-04-15T06:16:13;98489.56;;;7.87;91.80
76126;BME280;65174;48.138;21.002;2023-04-15T06:19:15;98493.16;;;7.97;92.06
76126;BME280;65174;48.138;21.002;2023-04-15T06:22:17;98500.13;;;8.08;91.79
76126;BME280;65174;48.138;21.002;2023-04-15T06:25:19;98496.13;;;8.04;91.41
76126;BME280;65174;48.138;21.002;2023-04-15T06:28:21;98498.75;;;8.28;90.64
76126;BME280;65174;48.138;21.002;2023-04-15T06:31:23;98508.38;;;8.49;89.11
76126;BME280;65174;48.138;21.002;2023-04-15T06:34:25;98507.72;;;9.06;89.32
76126;BME280;65174;48.138;21.002;2023-04-15T06:37:28;98510.75;;;9.45;88.36
76126;BME280;65174;48.138;21.002;2023-04-15T06:40:30;98508.50;;;9.41;88.10
76126;BME280;65174;48.138;21.002;2023-04-15T06:43:32;98513.41;;;9.33;88.70
76126;BME280;65174;48.138;21.002;2023-04-15T06:46:34;98518.81;;;9.41;87.16
76126;BME280;65174;48.138;21.002;2023-04-15T06:49:36;98518.44;;;9.34;88.05
76126;BME280;65174;48.138;21.002;2023-04-15T06:52:38;98530.59;;;9.21;86.58
76126;BME280;65174;48.138;21.002;2023-04-15T06:55:40;98531.09;;;9.03;87.99
76126;BME280;65174;48.138;21.002;2023-04-15T06:58:43;98529.69;;;9.10;88.26
76126;BME280;65174;48.138;21.002;2023-04-15T07:01:44;98538.56;;;9.06;88.27
76126;BME280;65174;48.138;21.002;2023-04-15T07:04:47;98532.84;;;9.37;87.15
76126;BME280;65174;48.138;21.002;2023-04-15T07:07:49;98534.03;;;9.44;86.96
76126;BME280;65174;48.138;21.002;2023-04-15T07:10:52;98541.97;;;9.30;87.10
76126;BME280;65174;48.138;21.002;2023-04-15T07:13:56;98538.38;;;9.43;85.76
76126;BME280;65174;48.138;21.002;2023-04-15T07:16:59;98552.06;;;9.44;86.77
76126;BME280;65174;48.138;21.002;2023-04-15T07:20:02;98553.44;;;9.83;85.44
76126;BME280;65174;48.138;21.002;2023-04-15T07:23:05;98550.09;;;10.37;85.87
76126;BME280;65174;48.138;21.002;2023-04-15T07:26:07;98559.56;;;10.48;82.72
76126;BME280;65174;48.138;21.002;2023-04-15T07:29:10;98562.28;;;10.47;82.41
76126;BME280;65174;48.138;21.002;2023-04-15T07:32:12;98568.09;;;10.82;83.47
76126;BME280;65174;48.138;21.002;2023-04-15T07:35:14;98567.75;;;10.75;83.16
76126;BME280;65174;48.138;21.002;2023-04-15T07:38:16;98565.44;;;10.50;82.94
76126;BME280;65174;48.138;21.002;2023-04-15T07:41:18;98565.13;;;10.97;82.06
76126;BME280;65174;48.138;21.002;2023-04-15T07:44:21;98570.03;;;10.89;80.07
76126;BME280;65174;48.138;21.002;2023-04-15T07:47:23;98567.94;;;10.83;80.96
76126;BME280;65174;48.138;21.002;2023-04-15T07:50:27;98572.63;;;10.89;78.78
76126;BME280;65174;48.138;21.002;2023-04-15T07:53:29;98579.22;;;10.82;80.15
76126;BME280;65174;48.138;21.002;2023-04-15T07:56:31;98571.16;;;10.65;81.71
76126;BME280;65174;48.138;21.002;2023-04-15T07:59:33;98569.53;;;10.64;80.84
76126;BME280;65174;48.138;21.002;2023-04-15T08:02:35;98571.50;;;10.60;80.50
76126;BME280;65174;48.138;21.002;2023-04-15T08:05:41;98577.97;;;10.44;82.28
76126;BME280;65174;48.138;21.002;2023-04-15T08:08:43;98582.66;;;10.50;83.03
76126;BME280;65174;48.138;21.002;2023-04-15T08:11:47;98575.50;;;10.31;82.05
76126;BME280;65174;48.138;21.002;2023-04-15T08:14:49;98581.63;;;10.30;81.31
76126;BME280;65174;48.138;21.002;2023-04-15T08:17:52;98589.69;;;10.25;81.87
76126;BME280;65174;48.138;21.002;2023-04-15T08:20:54;98596.50;;;10.37;81.33
76126;BME280;65174;48.138;21.002;2023-04-15T08:23:56;98592.03;;;10.39;81.69
76126;BME280;65174;48.138;21.002;2023-04-15T08:26:58;98588.41;;;10.31;82.39
76126;BME280;65174;48.138;21.002;2023-04-15T08:30:00;98589.69;;;10.25;82.60
76126;BME280;65174;48.138;21.002;2023-04-15T08:33:05;98588.63;;;10.50;82.79
76126;BME280;65174;48.138;21.002;2023-04-15T08:36:07;98585.88;;;10.96;82.58
76126;BME280;65174;48.138;21.002;2023-04-15T08:39:10;98589.50;;;10.93;80.69
76126;BME280;65174;48.138;21.002;2023-04-15T08:42:15;98596.50;;;11.13;81.06
76126;BME280;65174;48.138;21.002;2023-04-15T08:45:18;98590.38;;;10.72;80.86
76126;BME280;65174;48.138;21.002;2023-04-15T08:48:21;98589.03;;;11.31;77.28
76126;BME280;65174;48.138;21.002;2023-04-15T08:51:25;98590.25;;;11.79;77.76
76126;BME280;65174;48.138;21.002;2023-04-15T08:54:28;98586.28;;;11.44;78.65
76126;BME280;65174;48.138;21.002;2023-04-15T08:57:31;98592.38;;;11.54;79.85
76126;BME280;65174;48.138;21.002;2023-04-15T09:00:34;98583.16;;;11.61;77.07
76126;BME280;65174;48.138;21.002;2023-04-15T09:03:37;98581.22;;;11.94;75.43
76126;BME280;65174;48.138;21.002;2023-04-15T09:06:39;98582.94;;;12.05;76.56
76126;BME280;65174;48.138;21.002;2023-04-15T09:09:42;98584.78;;;11.93;74.60
76126;BME280;65174;48.138;21.002;2023-04-15T09:12:44;98575.13;;;12.26;76.98
76126;BME280;65174;48.138;21.002;2023-04-15T09:15:47;98578.00;;;12.23;73.38
76126;BME280;65174;48.138;21.002;2023-04-15T09:18:49;98574.16;;;12.47;73.95
76126;BME280;65174;48.138;21.002;2023-04-15T09:21:53;98571.31;;;12.60;73.36
76126;BME280;65174;48.138;21.002;2023-04-15T09:24:59;98572.75;;;12.83;71.22
76126;BME280;65174;48.138;21.002;2023-04-15T09:28:02;98577.31;;;13.10;65.88
76126;BME280;65174;48.138;21.002;2023-04-15T09:31:04;98583.06;;;13.23;66.74
76126;BME280;65174;48.138;21.002;2023-04-15T09:34:06;98579.22;;;13.08;69.38
76126;BME280;65174;48.138;21.002;2023-04-15T09:37:08;98580.72;;;13.20;69.16
76126;BME280;65174;48.138;21.002;2023-04-15T09:40:11;98575.81;;;13.45;68.50
76126;BME280;65174;48.138;21.002;2023-04-15T09:43:13;98572.84;;;13.31;68.79
76126;BME280;65174;48.138;21.002;2023-04-15T09:46:17;98570.91;;;13.14;67.97
76126;BME280;65174;48.138;21.002;2023-04-15T09:49:19;98566.94;;;13.00;68.11
76126;BME280;65174;48.138;21.002;2023-04-15T09:52:22;98567.19;;;13.83;65.95
76126;BME280;65174;48.138;21.002;2023-04-15T09:55:24;98557.28;;;13.50;65.94
76126;BME280;65174;48.138;21.002;2023-04-15T09:58:30;98558.53;;;13.17;68.90
76126;BME280;65174;48.138;21.002;2023-04-15T10:01:34;98556.41;;;13.88;67.07
76126;BME280;65174;48.138;21.002;2023-04-15T10:04:39;98552.91;;;14.16;65.53
76126;BME280;65174;48.138;21.002;2023-04-15T10:07:42;98551.75;;;14.01;65.26
76126;BME280;65174;48.138;21.002;2023-04-15T10:10:46;98549.94;;;14.11;66.19
76126;BME280;65174;48.138;21.002;2023-04-15T10:13:49;98546.66;;;14.46;65.96
76126;BME280;65174;48.138;21.002;2023-04-15T10:16:52;98549.13;;;14.74;63.21
76126;BME280;65174;48.138;21.002;2023-04-15T10:19:59;98548.91;;;14.68;61.39
76126;BME280;65174;48.138;21.002;2023-04-15T10:23:01;98539.63;;;14.28;63.52
76126;BME280;65174;48.138;21.002;2023-04-15T10:26:04;98532.59;;;14.48;63.92
76126;BME280;65174;48.138;21.002;2023-04-15T10:29:07;98528.28;;;14.84;63.53
76126;BME280;65174;48.138;21.002;2023-04-15T10:32:10;98528.22;;;14.93;63.83
76126;BME280;65174;48.138;21.002;2023-04-15T10:35:12;98523.31;;;14.90;63.15
76126;BME280;65174;48.138;21.002;2023-04-15T10:38:37;98526.81;;;14.54;63.41
76126;BME280;65174;48.138;21.002;2023-04-15T10:41:39;98523.91;;;15.02;60.34
76126;BME280;65174;48.138;21.002;2023-04-15T10:44:49;98522.66;;;15.41;57.12
76126;BME280;65174;48.138;21.002;2023-04-15T10:47:56;98523.38;;;14.81;56.08
76126;BME280;65174;48.138;21.002;2023-04-15T10:51:01;98534.91;;;15.13;56.20
76126;BME280;65174;48.138;21.002;2023-04-15T10:54:12;98516.47;;;16.11;54.95
76126;BME280;65174;48.138;21.002;2023-04-15T10:57:22;98517.88;;;15.72;56.17
76126;BME280;65174;48.138;21.002;2023-04-15T11:00:26;98523.94;;;15.37;55.97
76126;BME280;65174;48.138;21.002;2023-04-15T11:03:41;98522.44;;;15.17;56.03
76126;BME280;65174;48.138;21.002;2023-04-15T11:06:44;98525.09;;;14.72;55.75
76126;BME280;65174;48.138;21.002;2023-04-15T11:09:46;98532.84;;;14.99;56.16
76126;BME280;65174;48.138;21.002;2023-04-15T11:12:51;98541.38;;;15.09;53.55
76126;BME280;65174;48.138;21.002;2023-04-15T11:15:55;98552.75;;;14.81;51.71
76126;BME280;65174;48.138;21.002;2023-04-15T11:18:59;98549.63;;;14.23;54.37
76126;BME280;65174;48.138;21.002;2023-04-15T11:22:09;98553.16;;;14.22;55.11
76126;BME280;65174;48.138;21.002;2023-04-15T11:25:23;98561.00;;;14.03;56.74
76126;BME280;65174;48.138;21.002;2023-04-15T11:28:30;98573.16;;;14.03;57.23
76126;BME280;65174;48.138;21.002;2023-04-15T11:31:32;98578.59;;;12.85;58.51
76126;BME280;65174;48.138;21.002;2023-04-15T11:34:34;98586.84;;;12.60;60.96
76126;BME280;65174;48.138;21.002;2023-04-15T11:37:37;98588.28;;;12.43;62.12
76126;BME280;65174;48.138;21.002;2023-04-15T11:40:39;98594.41;;;12.42;62.78
76126;BME280;65174;48.138;21.002;2023-04-15T11:43:43;98601.50;;;12.20;62.82
76126;BME280;65174;48.138;21.002;2023-04-15T11:46:45;98600.44;;;12.22;62.31
76126;BME280;65174;48.138;21.002;2023-04-15T11:49:47;98614.63;;;12.28;62.34
76126;BME280;65174;48.138;21.002;2023-04-15T11:55:57;98624.91;;;12.18;63.90
76126;BME280;65174;48.138;21.002;2023-04-15T11:58:59;98628.69;;;12.35;63.33
76126;BME280;65174;48.138;21.002;2023-04-15T12:02:11;98633.00;;;12.25;63.04
76126;BME280;65174;48.138;21.002;2023-04-15T12:05:13;98623.84;;;12.21;62.98
76126;BME280;65174;48.138;21.002;2023-04-15T12:08:15;98624.47;;;12.13;63.53
76126;BME280;65174;48.138;21.002;2023-04-15T12:11:18;98632.19;;;12.04;62.07
76126;BME280;65174;48.138;21.002;2023-04-15T12:17:25;98620.06;;;12.25;60.79
76126;BME280;65174;48.138;21.002;2023-04-15T12:20:29;98627.47;;;12.39;60.62
76126;BME280;65174;48.138;21.002;2023-04-15T12:23:37;98622.13;;;12.31;61.44
76126;BME280;65174;48.138;21.002;2023-04-15T12:26:42;98620.34;;;12.61;60.96
76126;BME280;65174;48.138;21.002;2023-04-15T12:29:44;98614.16;;;12.83;58.18
76126;BME280;65174;48.138;21.002;2023-04-15T12:32:46;98621.25;;;13.49;57.46
76126;BME280;65174;48.138;21.002;2023-04-15T12:35:49;98615.09;;;13.79;57.33
76126;BME280;65174;48.138;21.002;2023-04-15T12:38:51;98616.03;;;13.88;53.52
76126;BME280;65174;48.138;21.002;2023-04-15T12:41:54;98607.00;;;14.11;53.50
76126;BME280;65174;48.138;21.002;2023-04-15T12:44:56;98603.22;;;13.77;55.06
76126;BME280;65174;48.138;21.002;2023-04-15T12:47:58;98607.66;;;14.13;54.33
76126;BME280;65174;48.138;21.002;2023-04-15T12:51:00;98620.94;;;13.91;54.03
76126;BME280;65174;48.138;21.002;2023-04-15T12:54:04;98609.41;;;14.31;54.42
76126;BME280;65174;48.138;21.002;2023-04-15T12:57:06;98611.28;;;14.39;54.77
76126;BME280;65174;48.138;21.002;2023-04-15T13:00:09;98615.69;;;14.29;55.09
76126;BME280;65174;48.138;21.002;2023-04-15T13:03:11;98620.72;;;14.40;56.63
76126;BME280;65174;48.138;21.002;2023-04-15T13:06:13;98630.22;;;14.59;53.27
76126;BME280;65174;48.138;21.002;2023-04-15T13:09:15;98632.28;;;14.55;51.69
76126;BME280;65174;48.138;21.002;2023-04-15T13:12:17;98640.81;;;14.28;54.46
76126;BME280;65174;48.138;21.002;2023-04-15T13:15:19;98647.16;;;13.69;54.65
76126;BME280;65174;48.138;21.002;2023-04-15T13:18:23;98651.41;;;13.50;56.57
76126;BME280;65174;48.138;21.002;2023-04-15T13:21:25;98656.16;;;12.96;59.50
76126;BME280;65174;48.138;21.002;2023-04-15T13:24:28;98657.50;;;12.91;60.98
76126;BME280;65174;48.138;21.002;2023-04-15T13:27:29;98671.25;;;12.61;61.62
76126;BME280;65174;48.138;21.002;2023-04-15T13:30:32;98668.19;;;12.46;59.43
76126;BME280;65174;48.138;21.002;2023-04-15T13:33:34;98670.06;;;12.14;62.08
76126;BME280;65174;48.138;21.002;2023-04-15T13:36:35;98674.41;;;11.93;63.16
76126;BME280;65174;48.138;21.002;2023-04-15T13:39:37;98669.72;;;11.66;65.27
76126;BME280;65174;48.138;21.002;2023-04-15T13:42:41;98673.88;;;11.36;68.09
76126;BME280;65174;48.138;21.002;2023-04-15T13:45:45;98675.28;;;10.64;76.94
76126;BME280;65174;48.138;21.002;2023-04-15T13:48:47;98667.78;;;10.72;78.37
76126;BME280;65174;48.138;21.002;2023-04-15T13:51:50;98675.47;;;11.05;76.99
76126;BME280;65174;48.138;21.002;2023-04-15T13:54:52;98676.19;;;11.07;76.80
76126;BME280;65174;48.138;21.002;2023-04-15T13:58:13;98662.34;;;10.97;76.81
76126;BME280;65174;48.138;21.002;2023-04-15T14:01:16;98669.38;;;11.06;76.66
76126;BME280;65174;48.138;21.002;2023-04-15T14:04:18;98668.78;;;11.25;74.34
76126;BME280;65174;48.138;21.002;2023-04-15T14:07:20;98665.09;;;11.27;74.34
76126;BME280;65174;48.138;21.002;2023-04-15T14:10:22;98672.78;;;11.60;68.55
76126;BME280;65174;48.138;21.002;2023-04-15T14:13:24;98672.25;;;11.77;72.25
76126;BME280;65174;48.138;21.002;2023-04-15T14:16:26;98666.84;;;11.80;71.29
76126;BME280;65174;48.138;21.002;2023-04-15T14:19:30;98674.28;;;12.15;70.25
76126;BME280;65174;48.138;21.002;2023-04-15T14:22:32;98677.56;;;12.38;68.79
76126;BME280;65174;48.138;21.002;2023-04-15T14:25:34;98679.72;;;12.33;68.27
76126;BME280;65174;48.138;21.002;2023-04-15T14:28:36;98687.94;;;12.68;67.91
76126;BME280;65174;48.138;21.002;2023-04-15T14:31:39;98702.63;;;12.37;66.52
76126;BME280;65174;48.138;21.002;2023-04-15T14:34:42;98702.66;;;12.47;68.10
76126;BME280;65174;48.138;21.002;2023-04-15T14:37:44;98719.75;;;12.38;68.03
76126;BME280;65174;48.138;21.002;2023-04-15T14:40:46;98720.47;;;11.88;68.79
76126;BME280;65174;48.138;21.002;2023-04-15T14:43:48;98725.59;;;11.56;72.31
76126;BME280;65174;48.138;21.002;2023-04-15T14:46:50;98716.91;;;11.03;74.08
76126;BME280;65174;48.138;21.002;2023-04-15T14:49:53;98724.28;;;10.75;74.73
76126;BME280;65174;48.138;21.002;2023-04-15T14:52:55;98724.28;;;10.64;74.66
76126;BME280;65174;48.138;21.002;2023-04-15T14:55:57;98727.91;;;10.83;75.61
76126;BME280;65174;48.138;21.002;2023-04-15T14:58:59;98733.88;;;10.73;75.68
76126;BME280;65174;48.138;21.002;2023-04-15T15:02:01;98732.84;;;10.75;76.64
76126;BME280;65174;48.138;21.002;2023-04-15T15:05:04;98730.28;;;10.97;75.29
76126;BME280;65174;48.138;21.002;2023-04-15T15:08:07;98725.44;;;11.15;73.25
76126;BME280;65174;48.138;21.002;2023-04-15T15:11:09;98732.28;;;11.59;72.37
76126;BME280;65174;48.138;21.002;2023-04-15T15:14:11;98731.19;;;11.83;69.29
76126;BME280;65174;48.138;21.002;2023-04-15T15:17:13;98739.81;;;11.73;68.96
76126;BME280;65174;48.138;21.002;2023-04-15T15:20:16;98740.38;;;12.08;69.03
76126;BME280;65174;48.138;21.002;2023-04-15T15:23:20;98729.69;;;12.13;67.39
76126;BME280;65174;48.138;21.002;2023-04-15T15:26:22;98737.72;;;12.19;67.08
76126;BME280;65174;48.138;21.002;2023-04-15T15:29:24;98732.09;;;12.25;68.25
76126;BME280;65174;48.138;21.002;2023-04-15T15:32:26;98733.94;;;12.23;66.60
76126;BME280;65174;48.138;21.002;2023-04-15T15:35:28;98734.75;;;12.03;68.64
76126;BME280;65174;48.138;21.002;2023-04-15T15:38:30;98736.59;;;11.91;69.27
76126;BME280;65174;48.138;21.002;2023-04-15T15:41:32;98739.06;;;11.82;66.41
76126;BME280;65174;48.138;21.002;2023-04-15T15:44:35;98744.28;;;11.60;66.97
76126;BME280;65174;48.138;21.002;2023-04-15T15:47:39;98743.09;;;11.64;68.58
76126;BME280;65174;48.138;21.002;2023-04-15T15:50:43;98742.63;;;12.02;67.80
76126;BME280;65174;48.138;21.002;2023-04-15T15:53:46;98747.88;;;12.11;68.39
76126;BME280;65174;48.138;21.002;2023-04-15T15:56:48;98741.81;;;12.01;68.42
76126;BME280;65174;48.138;21.002;2023-04-15T15:59:51;98748.81;;;11.89;71.63
76126;BME280;65174;48.138;21.002;2023-04-15T16:03:10;98739.22;;;11.58;72.15
76126;BME280;65174;48.138;21.002;2023-04-15T16:06:12;98741.09;;;11.67;70.98
76126;BME280;65174;48.138;21.002;2023-04-15T16:09:14;98748.53;;;11.50;70.73